Time;durP1;ratioP1;P1;durP2;ratioP2;P2;SDS_P1;SDS_P2;PMS_P1;PMS_P2;Temp;Humidity;BMP_temperature;BMP_pressure;BME280_temperature;BME280_humidity;BME280_pressure;Samples;Min_cycle;Max_cycle;Signal;HPM_P1;HPM_P2
2021/12/11 00:00:56;;;;;;;35.35;21.88;;;;;;;;;;6154453;23;20089;-80
2021/12/11 00:03:24;;;;;;;31.35;21.25;;;;;;;;;;6154323;23;20013;-80
2021/12/11 00:06:01;;;;;;;34.70;20.02;;;;;;;;;;6154116;23;20024;-80
2021/12/11 00:08:29;;;;;;;33.38;21.33;;;;;;;;;;6154265;23;20024;-80
2021/12/11 00:10:58;;;;;;;37.10;22.45;;;;;;;;;;6154141;23;20009;-80
2021/12/11 00:13:26;;;;;;;33.28;22.15;;;;;;;;;;6154092;23;20009;-81
2021/12/11 00:15:52;;;;;;;32.25;20.65;;;;;;;;;;6130016;23;20049;-81
2021/12/11 00:18:22;;;;;;;30.98;20.83;;;;;;;;;;6154438;23;20056;-81
2021/12/11 00:20:52;;;;;;;33.03;22.38;;;;;;;;;;6154245;23;20020;-81
2021/12/11 00:23:33;;;;;;;30.55;20.30;;;;;;;;;;6153706;23;20015;-81
2021/12/11 00:26:00;;;;;;;33.33;21.02;;;;;;;;;;6154182;23;20016;-81
2021/12/11 00:28:26;;;;;;;32.17;21.60;;;;;;;;;;6154554;23;20017;-81
2021/12/11 00:30:52;;;;;;;32.70;21.08;;;;;;;;;;6129502;23;20020;-81
2021/12/11 00:33:20;;;;;;;30.90;20.80;;;;;;;;;;6154131;23;20063;-81
2021/12/11 00:35:46;;;;;;;31.60;20.13;;;;;;;;;;6153744;23;20039;-81
2021/12/11 00:38:14;;;;;;;29.80;20.02;;;;;;;;;;6153713;23;20328;-81
2021/12/11 00:40:41;;;;;;;31.38;19.98;;;;;;;;;;6153988;23;20017;-81
2021/12/11 00:43:12;;;;;;;32.60;21.45;;;;;;;;;;6153901;23;20013;-81
2021/12/11 00:45:39;;;;;;;30.98;20.15;;;;;;;;;;6154146;23;20079;-81
2021/12/11 00:48:08;;;;;;;31.13;20.73;;;;;;;;;;6153991;23;20017;-81
2021/12/11 00:50:37;;;;;;;30.70;20.58;;;;;;;;;;6154017;23;20017;-81
2021/12/11 00:53:09;;;;;;;29.08;19.30;;;;;;;;;;6153570;23;20072;-81
2021/12/11 00:55:37;;;;;;;29.15;19.95;;;;;;;;;;6153856;23;20013;-81
2021/12/11 00:58:30;;;;;;;31.08;20.15;;;;;;;;;;6129179;23;20067;-81
2021/12/11 01:00:59;;;;;;;34.08;22.10;;;;;;;;;;6150910;23;20035;-81
2021/12/11 01:03:35;;;;;;;32.63;22.15;;;;;;;;;;6153789;23;20259;-81
2021/12/11 01:06:06;;;;;;;33.92;21.38;;;;;;;;;;6128925;23;20079;-81
2021/12/11 01:08:36;;;;;;;33.45;22.02;;;;;;;;;;6153704;23;20012;-81
2021/12/11 01:11:08;;;;;;;29.95;19.50;;;;;;;;;;6153612;23;20017;-81
2021/12/11 01:13:36;;;;;;;27.95;18.77;;;;;;;;;;6129128;23;20013;-81
2021/12/11 01:16:06;;;;;;;30.77;20.55;;;;;;;;;;6129098;23;20009;-81
2021/12/11 01:18:37;;;;;;;27.50;19.52;;;;;;;;;;6153915;23;20041;-81
2021/12/11 01:24:15;;;;;;;31.23;20.40;;;;;;;;;;6153916;23;20024;-81
2021/12/11 01:27:00;;;;;;;31.05;20.98;;;;;;;;;;6153919;23;20458;-81
2021/12/11 01:29:27;;;;;;;32.55;21.20;;;;;;;;;;6153477;23;20021;-81
2021/12/11 01:31:55;;;;;;;34.13;21.73;;;;;;;;;;6153893;23;20354;-82
2021/12/11 01:34:21;;;;;;;38.20;22.10;;;;;;;;;;6153475;23;20403;-81
2021/12/11 01:36:47;;;;;;;36.40;24.60;;;;;;;;;;6153426;23;20045;-81
2021/12/11 01:39:16;;;;;;;36.60;24.20;;;;;;;;;;6153120;23;20017;-81
2021/12/11 01:41:43;;;;;;;36.40;24.38;;;;;;;;;;6128506;23;20017;-81
2021/12/11 01:44:13;;;;;;;39.47;24.73;;;;;;;;;;6153206;23;20451;-81
2021/12/11 01:46:39;;;;;;;33.15;21.95;;;;;;;;;;6128852;23;20041;-81
2021/12/11 01:49:07;;;;;;;35.47;21.45;;;;;;;;;;6153407;23;20028;-81
2021/12/11 01:51:48;;;;;;;34.53;21.38;;;;;;;;;;6153397;23;20104;-81
2021/12/11 01:54:19;;;;;;;32.90;21.15;;;;;;;;;;6128755;23;20055;-81
2021/12/11 01:56:47;;;;;;;31.88;20.17;;;;;;;;;;6153339;23;20087;-81
2021/12/11 01:59:22;;;;;;;33.67;21.27;;;;;;;;;;6128694;23;20521;-81
2021/12/11 02:01:48;;;;;;;;;;;;;;;;;;6153967;23;20009;-81
2021/12/11 02:04:15;;;;;;;33.50;19.38;;;;;;;;;;6153223;23;20441;-81
2021/12/11 02:06:43;;;;;;;30.13;19.65;;;;;;;;;;6153180;23;20021;-81
2021/12/11 02:09:12;;;;;;;34.05;20.63;;;;;;;;;;6128695;23;20028;-81
2021/12/11 02:11:38;;;;;;;32.08;20.50;;;;;;;;;;6153489;23;20087;-81
2021/12/11 02:14:05;;;;;;;33.03;21.33;;;;;;;;;;6153202;23;20351;-81
2021/12/11 02:16:43;;;;;;;34.78;21.70;;;;;;;;;;6128650;23;20023;-81
2021/12/11 02:19:11;;;;;;;31.77;20.17;;;;;;;;;;6153204;23;20070;-81
2021/12/11 02:21:55;;;;;;;30.60;20.15;;;;;;;;;;6128575;23;20013;-81
2021/12/11 02:24:24;;;;;;;31.67;20.53;;;;;;;;;;6153213;23;20013;-81
2021/12/11 02:26:52;;;;;;;29.55;19.85;;;;;;;;;;6153327;23;20240;-81
2021/12/11 02:29:21;;;;;;;31.05;19.85;;;;;;;;;;6153093;23;20017;-81
2021/12/11 02:31:53;;;;;;;33.88;19.20;;;;;;;;;;6153372;23;20012;-81
2021/12/11 02:34:25;;;;;;;34.10;21.85;;;;;;;;;;6153199;23;20013;-81
2021/12/11 02:37:09;;;;;;;32.75;21.23;;;;;;;;;;6153120;23;20028;-82
2021/12/11 02:39:44;;;;;;;33.60;21.00;;;;;;;;;;6153103;23;20084;-81
2021/12/11 02:42:16;;;;;;;31.95;19.88;;;;;;;;;;6153220;23;20051;-81
2021/12/11 02:44:51;;;;;;;33.25;21.20;;;;;;;;;;6128990;23;20017;-81
2021/12/11 02:47:17;;;;;;;35.15;20.40;;;;;;;;;;6129623;23;20013;-81
2021/12/11 02:49:46;;;;;;;29.95;20.15;;;;;;;;;;6155124;23;20019;-81
2021/12/11 02:52:24;;;;;;;34.22;21.40;;;;;;;;;;6130549;23;20140;-81
2021/12/11 02:54:57;;;;;;;29.30;19.40;;;;;;;;;;6130422;23;20013;-81
2021/12/11 02:57:27;;;;;;;32.00;21.33;;;;;;;;;;6130817;23;20013;-81
2021/12/11 02:59:54;;;;;;;29.15;17.88;;;;;;;;;;6154878;23;20024;-81
2021/12/11 03:02:22;;;;;;;28.92;19.10;;;;;;;;;;6154903;23;20016;-81
2021/12/11 03:04:52;;;;;;;26.13;18.20;;;;;;;;;;6130244;23;20096;-81
2021/12/11 03:07:22;;;;;;;31.90;20.15;;;;;;;;;;6154498;23;20021;-81
2021/12/11 03:09:50;;;;;;;33.38;19.35;;;;;;;;;;6154880;23;20410;-82
2021/12/11 03:12:17;;;;;;;30.95;20.25;;;;;;;;;;6154757;23;20017;-81
2021/12/11 03:14:44;;;;;;;30.83;20.55;;;;;;;;;;6154604;23;20017;-81
2021/12/11 03:17:10;;;;;;;33.88;22.02;;;;;;;;;;6154367;23;20012;-81
2021/12/11 03:19:39;;;;;;;34.47;23.23;;;;;;;;;;6154718;23;20020;-81
2021/12/11 03:22:06;;;;;;;29.52;20.25;;;;;;;;;;6154634;23;20013;-82
2021/12/11 03:24:35;;;;;;;27.63;17.90;;;;;;;;;;6154716;23;20013;-81
2021/12/11 03:27:01;;;;;;;27.35;17.75;;;;;;;;;;6154540;23;20013;-81
2021/12/11 03:29:28;;;;;;;26.98;17.75;;;;;;;;;;6154650;23;20017;-81
2021/12/11 03:31:54;;;;;;;25.88;17.33;;;;;;;;;;6130317;23;20044;-81
2021/12/11 03:34:22;;;;;;;26.38;18.42;;;;;;;;;;6154598;23;20107;-81
2021/12/11 03:36:48;;;;;;;32.30;20.20;;;;;;;;;;6129937;23;20176;-81
2021/12/11 03:39:22;;;;;;;34.90;21.60;;;;;;;;;;6154458;23;20025;-82
2021/12/11 03:41:49;;;;;;;37.08;24.70;;;;;;;;;;6154595;23;20061;-82
2021/12/11 03:44:16;;;;;;;38.22;24.55;;;;;;;;;;6154496;23;20032;-81
2021/12/11 03:46:43;;;;;;;39.72;24.88;;;;;;;;;;6154505;23;20019;-81
2021/12/11 03:49:11;;;;;;;37.38;23.17;;;;;;;;;;6130054;23;20016;-81
2021/12/11 03:51:39;;;;;;;42.70;25.73;;;;;;;;;;6154383;23;20017;-82
2021/12/11 03:54:06;;;;;;;40.42;25.45;;;;;;;;;;6154403;23;20020;-81
2021/12/11 03:56:33;;;;;;;36.88;24.00;;;;;;;;;;6129632;23;20534;-81
2021/12/11 03:59:00;;;;;;;37.80;23.63;;;;;;;;;;6153698;23;20013;-81
2021/12/11 04:01:28;;;;;;;39.78;25.33;;;;;;;;;;6129633;23;20013;-81
2021/12/11 04:03:57;;;;;;;40.13;25.08;;;;;;;;;;6154258;23;20009;-81
2021/12/11 04:06:24;;;;;;;38.28;25.63;;;;;;;;;;6129722;23;20375;-81
2021/12/11 04:08:51;;;;;;;38.50;24.63;;;;;;;;;;6129601;23;20013;-81
2021/12/11 04:11:37;;;;;;;36.33;25.73;;;;;;;;;;6154298;23;20017;-81
2021/12/11 04:14:09;;;;;;;41.05;27.23;;;;;;;;;;6153879;23;20024;-81
2021/12/11 04:16:35;;;;;;;39.10;26.10;;;;;;;;;;6154271;23;20017;-81
2021/12/11 04:19:03;;;;;;;39.22;26.05;;;;;;;;;;6154087;23;20021;-81
2021/12/11 04:21:29;;;;;;;39.92;26.38;;;;;;;;;;6154073;23;20009;-81
2021/12/11 04:23:55;;;;;;;40.40;25.85;;;;;;;;;;6154240;23;20013;-81
2021/12/11 04:26:22;;;;;;;42.65;26.35;;;;;;;;;;6154086;23;20036;-81
2021/12/11 04:28:48;;;;;;;48.30;28.77;;;;;;;;;;6153726;23;20049;-81
2021/12/11 04:31:19;;;;;;;43.15;28.83;;;;;;;;;;6129240;23;20021;-81
2021/12/11 04:33:47;;;;;;;47.05;28.90;;;;;;;;;;6129440;23;20064;-81
2021/12/11 04:36:15;;;;;;;44.60;26.75;;;;;;;;;;6153666;23;20013;-81
2021/12/11 04:38:42;;;;;;;44.42;27.70;;;;;;;;;;6129555;23;20013;-81
2021/12/11 04:41:09;;;;;;;43.70;26.25;;;;;;;;;;6129350;23;20439;-81
2021/12/11 04:43:36;;;;;;;41.80;27.50;;;;;;;;;;6153951;23;20012;-81
2021/12/11 04:46:05;;;;;;;44.83;28.00;;;;;;;;;;6129390;23;20300;-81
2021/12/11 04:49:24;;;;;;;37.53;26.23;;;;;;;;;;6154107;23;20012;-81
2021/12/11 04:51:29;;;;;;;28.00;19.23;;;;;;;;;;6141682;23;20351;-81
2021/12/11 04:54:32;;;;;;;30.17;18.33;;;;;;;;;;6153828;23;20032;-81
2021/12/11 05:10:06;;;;;;;34.05;21.45;;;;;;;;;;6153496;23;20298;-81
2021/12/11 05:12:35;;;;;;;37.25;22.52;;;;;;;;;;6153643;23;20343;-81
2021/12/11 05:15:04;;;;;;;33.05;21.92;;;;;;;;;;6129004;23;20108;-81
2021/12/11 05:17:30;;;;;;;33.65;23.17;;;;;;;;;;6153554;23;20017;-81
2021/12/11 05:19:56;;;;;;;37.13;22.42;;;;;;;;;;6153546;23;20013;-81
2021/12/11 05:22:22;;;;;;;32.30;21.73;;;;;;;;;;6153535;23;20526;-82
2021/12/11 05:24:50;;;;;;;33.55;21.92;;;;;;;;;;6128935;23;20047;-81
2021/12/11 05:27:16;;;;;;;34.38;21.88;;;;;;;;;;6128973;23;20020;-81
2021/12/11 05:29:42;;;;;;;36.60;23.23;;;;;;;;;;6128789;23;20013;-81
2021/12/11 05:32:10;;;;;;;39.25;25.45;;;;;;;;;;6153436;23;20017;-81
2021/12/11 05:34:36;;;;;;;40.83;25.20;;;;;;;;;;6128891;23;20013;-82
2021/12/11 05:37:02;;;;;;;39.45;25.63;;;;;;;;;;6153407;23;20016;-82
2021/12/11 05:39:28;;;;;;;33.03;23.02;;;;;;;;;;6153180;23;20071;-82
2021/12/11 05:41:54;;;;;;;40.35;25.70;;;;;;;;;;6153378;23;20010;-81
2021/12/11 05:44:22;;;;;;;38.38;25.52;;;;;;;;;;6153406;23;20016;-81
2021/12/11 05:46:48;;;;;;;41.38;25.33;;;;;;;;;;6153340;23;20024;-81
2021/12/11 05:49:14;;;;;;;37.60;23.85;;;;;;;;;;6128663;23;20021;-81
2021/12/11 05:51:42;;;;;;;40.25;27.15;;;;;;;;;;6153696;23;20208;-82
2021/12/11 05:54:10;;;;;;;41.58;25.83;;;;;;;;;;6153265;23;20020;-81
2021/12/11 05:56:39;;;;;;;39.22;27.65;;;;;;;;;;6153358;23;20214;-81
2021/12/11 05:59:06;;;;;;;43.20;27.98;;;;;;;;;;6153534;23;20497;-81
2021/12/11 06:01:32;;;;;;;39.17;26.05;;;;;;;;;;6155196;23;20048;-81
2021/12/11 06:03:59;;;;;;;39.85;26.42;;;;;;;;;;6154273;23;20013;-81
2021/12/11 06:06:26;;;;;;;47.78;32.28;;;;;;;;;;6153847;23;20013;-82
2021/12/11 06:08:52;;;;;;;43.85;29.05;;;;;;;;;;6152401;23;20028;-82
2021/12/11 06:11:18;;;;;;;42.17;26.52;;;;;;;;;;6130670;23;20383;-82
2021/12/11 06:13:44;;;;;;;44.22;26.00;;;;;;;;;;6129936;23;20017;-81
2021/12/11 06:16:10;;;;;;;38.03;25.88;;;;;;;;;;6152839;23;20013;-81
2021/12/11 06:18:36;;;;;;;38.42;26.25;;;;;;;;;;6152261;23;20013;-83
2021/12/11 06:21:03;;;;;;;46.80;26.58;;;;;;;;;;6152605;23;20017;-83
2021/12/11 06:23:29;;;;;;;40.60;26.85;;;;;;;;;;6154354;23;20017;-85
2021/12/11 06:25:56;;;;;;;41.95;27.48;;;;;;;;;;6154444;23;20357;-84
2021/12/11 06:28:23;;;;;;;45.10;29.40;;;;;;;;;;6129943;23;20084;-83
2021/12/11 06:30:49;;;;;;;40.42;25.80;;;;;;;;;;6154502;23;20020;-83
2021/12/11 06:33:15;;;;;;;43.67;28.92;;;;;;;;;;6154091;23;20080;-83
2021/12/11 06:35:47;;;;;;;46.50;28.80;;;;;;;;;;6154431;23;20016;-83
2021/12/11 06:38:16;;;;;;;40.75;26.80;;;;;;;;;;6129927;23;20445;-83
2021/12/11 06:40:42;;;;;;;41.65;26.45;;;;;;;;;;6154375;23;20100;-83
2021/12/11 06:43:08;;;;;;;42.42;27.48;;;;;;;;;;6129835;23;20064;-84
2021/12/11 06:45:34;;;;;;;48.03;30.50;;;;;;;;;;6129569;23;20013;-84
2021/12/11 06:48:00;;;;;;;45.90;29.42;;;;;;;;;;6153505;23;20009;-83
2021/12/11 06:50:26;;;;;;;44.10;29.10;;;;;;;;;;6129500;23;20019;-84
2021/12/11 06:52:53;;;;;;;42.85;27.95;;;;;;;;;;6129461;23;20009;-82
2021/12/11 06:55:20;;;;;;;48.22;30.50;;;;;;;;;;6154080;23;20089;-82
2021/12/11 06:57:46;;;;;;;43.80;27.98;;;;;;;;;;6154436;23;20048;-82
2021/12/11 07:00:14;;;;;;;44.13;28.45;;;;;;;;;;6154741;23;20048;-82
2021/12/11 07:02:40;;;;;;;49.90;30.40;;;;;;;;;;6130182;23;20393;-82
2021/12/11 07:05:07;;;;;;;46.17;29.58;;;;;;;;;;6130013;23;20570;-83
2021/12/11 07:07:35;;;;;;;42.78;27.60;;;;;;;;;;6154183;23;20451;-84
2021/12/11 07:10:02;;;;;;;47.05;29.17;;;;;;;;;;6154670;23;20107;-83
2021/12/11 07:12:28;;;;;;;43.75;28.52;;;;;;;;;;6130002;23;20024;-84
2021/12/11 07:14:54;;;;;;;44.88;28.73;;;;;;;;;;6128565;23;20013;-84
2021/12/11 07:17:20;;;;;;;43.35;27.55;;;;;;;;;;6154877;23;20320;-83
2021/12/11 07:19:46;;;;;;;40.15;27.35;;;;;;;;;;6154458;23;20380;-84
2021/12/11 07:22:13;;;;;;;47.90;29.30;;;;;;;;;;6129631;23;20021;-83
2021/12/11 07:24:43;;;;;;;49.47;30.08;;;;;;;;;;6154589;23;20037;-83
2021/12/11 07:27:11;;;;;;;46.58;29.02;;;;;;;;;;6130433;23;20323;-83
2021/12/11 07:29:37;;;;;;;48.20;29.35;;;;;;;;;;6130148;23;20020;-83
2021/12/11 07:32:04;;;;;;;46.17;29.63;;;;;;;;;;6154662;23;20064;-83
2021/12/11 07:34:30;;;;;;;50.88;29.83;;;;;;;;;;6154514;23;20017;-81
2021/12/11 07:36:57;;;;;;;48.35;29.85;;;;;;;;;;6129691;23;20021;-82
2021/12/11 07:39:24;;;;;;;43.00;27.73;;;;;;;;;;6129765;23;20532;-81
2021/12/11 07:41:52;;;;;;;53.25;30.60;;;;;;;;;;6154748;23;20346;-83
2021/12/11 07:44:18;;;;;;;51.50;31.50;;;;;;;;;;6154419;23;20184;-82
2021/12/11 07:46:44;;;;;;;50.97;29.95;;;;;;;;;;6154407;23;20020;-83
2021/12/11 07:49:10;;;;;;;46.30;28.60;;;;;;;;;;6154108;23;20087;-83
2021/12/11 07:51:37;;;;;;;48.45;31.08;;;;;;;;;;6154198;23;20560;-83
2021/12/11 07:54:03;;;;;;;51.38;32.83;;;;;;;;;;6129628;23;20024;-82
2021/12/11 07:56:29;;;;;;;51.53;33.28;;;;;;;;;;6129665;23;20451;-82
2021/12/11 07:58:57;;;;;;;51.05;31.42;;;;;;;;;;6154052;23;20091;-83
2021/12/11 08:01:23;;;;;;;46.70;30.35;;;;;;;;;;6154220;23;20009;-83
2021/12/11 08:03:49;;;;;;;47.45;30.33;;;;;;;;;;6153933;23;20044;-83
2021/12/11 08:06:15;;;;;;;46.47;30.90;;;;;;;;;;6153730;23;20014;-82
2021/12/11 08:08:42;;;;;;;47.85;30.33;;;;;;;;;;6129378;23;20100;-82
2021/12/11 08:11:12;;;;;;;46.38;29.33;;;;;;;;;;6153932;23;20013;-82
2021/12/11 08:13:39;;;;;;;47.72;30.30;;;;;;;;;;6153744;23;20521;-82
2021/12/11 08:16:05;;;;;;;49.63;32.65;;;;;;;;;;6153767;23;20105;-82
2021/12/11 08:18:31;;;;;;;60.90;33.75;;;;;;;;;;6154400;23;20013;-82
2021/12/11 08:20:57;;;;;;;66.22;40.13;;;;;;;;;;6154045;23;20013;-82
2021/12/11 08:23:23;;;;;;;55.47;38.67;;;;;;;;;;6153963;23;20013;-82
2021/12/11 08:25:50;;;;;;;52.78;35.10;;;;;;;;;;6153871;23;20019;-82
2021/12/11 08:28:18;;;;;;;52.17;34.88;;;;;;;;;;6153850;23;20312;-82
2021/12/11 08:30:45;;;;;;;51.42;33.70;;;;;;;;;;6154134;23;20509;-82
2021/12/11 08:33:11;;;;;;;50.05;32.85;;;;;;;;;;6153781;23;20508;-83
2021/12/11 08:35:37;;;;;;;51.60;34.40;;;;;;;;;;6153347;23;20049;-83
2021/12/11 08:38:05;;;;;;;51.20;33.65;;;;;;;;;;6153473;23;20412;-82
2021/12/11 08:40:32;;;;;;;56.85;35.42;;;;;;;;;;6152378;23;20395;-83
2021/12/11 08:42:59;;;;;;;54.58;35.78;;;;;;;;;;6152716;23;20020;-83
2021/12/11 08:45:43;;;;;;;52.90;32.45;;;;;;;;;;6153227;23;20009;-83
2021/12/11 08:48:09;;;;;;;55.73;34.50;;;;;;;;;;6153483;23;20024;-83
2021/12/11 08:50:35;;;;;;;56.70;34.92;;;;;;;;;;6128819;23;20342;-82
2021/12/11 08:53:01;;;;;;;55.38;34.47;;;;;;;;;;6152811;23;20094;-83
2021/12/11 08:55:31;;;;;;;54.28;34.67;;;;;;;;;;6153232;23;20017;-83
2021/12/11 08:58:02;;;;;;;58.67;35.40;;;;;;;;;;6154100;23;20024;-84
2021/12/11 09:00:35;;;;;;;55.95;33.63;;;;;;;;;;6129147;23;20354;-83
2021/12/11 09:03:07;;;;;;;53.15;34.90;;;;;;;;;;6129132;23;20084;-82
2021/12/11 09:05:36;;;;;;;58.97;37.55;;;;;;;;;;6152918;23;20028;-82
2021/12/11 09:08:15;;;;;;;57.45;36.53;;;;;;;;;;6128405;23;20445;-82
2021/12/11 09:10:44;;;;;;;56.00;33.88;;;;;;;;;;6153197;23;20045;-81
2021/12/11 09:13:18;;;;;;;58.47;35.85;;;;;;;;;;6153131;23;20052;-82
2021/12/11 09:15:44;;;;;;;;;;;;;;;;;;6129197;23;20105;-82
2021/12/11 09:18:15;;;;;;;62.67;37.17;;;;;;;;;;6128330;23;19912;-82
2021/12/11 09:20:47;;;;;;;65.50;39.40;;;;;;;;;;6128815;23;20028;-82
2021/12/11 09:23:26;;;;;;;70.68;39.35;;;;;;;;;;6127995;23;20009;-82
2021/12/11 09:25:55;;;;;;;69.47;41.88;;;;;;;;;;6128565;23;20009;-83
2021/12/11 09:28:32;;;;;;;66.70;40.40;;;;;;;;;;6129019;23;20016;-84
2021/12/11 09:31:03;;;;;;;73.47;41.55;;;;;;;;;;6153230;23;20165;-83
2021/12/11 09:33:32;;;;;;;74.18;41.42;;;;;;;;;;6153100;23;20017;-81
2021/12/11 09:36:02;;;;;;;81.15;45.75;;;;;;;;;;6153659;23;20095;-82
2021/12/11 09:38:48;;;;;;;76.40;45.47;;;;;;;;;;6129085;23;20024;-81
2021/12/11 09:41:20;;;;;;;86.78;47.42;;;;;;;;;;6128293;23;20021;-81
2021/12/11 09:43:53;;;;;;;84.85;47.53;;;;;;;;;;6128615;23;20013;-81
2021/12/11 09:46:25;;;;;;;87.07;49.22;;;;;;;;;;6153198;23;20012;-81
2021/12/11 09:48:52;;;;;;;87.20;49.42;;;;;;;;;;6153174;23;20406;-81
2021/12/11 09:51:20;;;;;;;92.10;49.60;;;;;;;;;;6153247;23;20041;-81
2021/12/11 09:53:49;;;;;;;94.90;51.78;;;;;;;;;;6152902;23;20009;-82
2021/12/11 09:56:25;;;;;;;104.32;54.40;;;;;;;;;;6153106;23;20009;-81
2021/12/11 09:58:51;;;;;;;106.38;56.28;;;;;;;;;;6152690;23;20342;-80
2021/12/11 10:01:20;;;;;;;111.22;58.58;;;;;;;;;;6128272;23;20013;-80
2021/12/11 10:03:50;;;;;;;102.00;53.70;;;;;;;;;;6152987;23;20013;-80
2021/12/11 10:06:38;;;;;;;97.50;52.05;;;;;;;;;;6152859;23;20013;-80
2021/12/11 10:09:17;;;;;;;103.75;53.50;;;;;;;;;;6153271;23;20044;-80
2021/12/11 10:11:44;;;;;;;96.40;53.72;;;;;;;;;;6131944;23;20021;-81
2021/12/11 10:14:12;;;;;;;91.53;51.10;;;;;;;;;;6159631;22;20096;-82
2021/12/11 10:16:42;;;;;;;106.18;54.55;;;;;;;;;;6276404;22;20019;-83
2021/12/11 10:19:16;;;;;;;115.68;57.88;;;;;;;;;;6277052;22;20008;-83
2021/12/11 10:21:44;;;;;;;112.43;57.90;;;;;;;;;;6275603;22;20011;-82
2021/12/11 10:24:13;;;;;;;107.05;57.15;;;;;;;;;;6250208;22;20043;-83
2021/12/11 10:26:40;;;;;;;114.55;56.85;;;;;;;;;;6250494;22;20094;-83
2021/12/11 10:29:09;;;;;;;116.88;56.95;;;;;;;;;;6275309;22;20086;-82
2021/12/11 10:32:02;;;;;;;112.70;59.25;;;;;;;;;;6274795;22;20018;-83
2021/12/11 10:37:11;;;;;;;134.60;59.60;;;;;;;;;;6207077;23;20107;-79
2021/12/11 10:39:38;;;;;;;119.32;58.40;;;;;;;;;;6183253;23;20013;-79
2021/12/11 10:42:05;;;;;;;127.18;57.67;;;;;;;;;;6182870;23;20020;-79
2021/12/11 10:44:39;;;;;;;114.35;55.30;;;;;;;;;;6182061;23;20172;-79
2021/12/11 10:47:10;;;;;;;122.63;57.92;;;;;;;;;;6182092;23;20091;-79
2021/12/11 10:49:39;;;;;;;118.28;56.80;;;;;;;;;;6181863;23;20016;-80
2021/12/11 10:52:16;;;;;;;117.32;55.67;;;;;;;;;;6182734;23;20017;-80
2021/12/11 10:54:42;;;;;;;119.28;53.65;;;;;;;;;;6183159;23;20017;-79
2021/12/11 10:57:09;;;;;;;124.05;57.05;;;;;;;;;;6182664;23;20396;-79
2021/12/11 10:59:37;;;;;;;127.15;60.20;;;;;;;;;;6182737;23;20017;-79
2021/12/11 11:02:03;;;;;;;130.32;56.60;;;;;;;;;;6183019;23;20017;-79
2021/12/11 11:04:35;;;;;;;130.18;59.40;;;;;;;;;;6182847;23;20082;-79
2021/12/11 11:07:02;;;;;;;131.32;60.72;;;;;;;;;;6182903;23;20020;-79
2021/12/11 11:09:29;;;;;;;134.63;60.35;;;;;;;;;;6184952;23;20086;-79
2021/12/11 11:11:57;;;;;;;131.73;59.55;;;;;;;;;;6184609;23;20357;-79
2021/12/11 11:14:24;;;;;;;127.78;60.28;;;;;;;;;;6184659;23;20012;-79
2021/12/11 11:16:52;;;;;;;144.40;61.45;;;;;;;;;;6160060;23;20017;-79
2021/12/11 11:19:22;;;;;;;127.80;57.83;;;;;;;;;;6184851;23;20019;-79
2021/12/11 11:21:50;;;;;;;122.47;56.88;;;;;;;;;;6159640;23;20028;-79
2021/12/11 11:24:16;;;;;;;107.85;55.35;;;;;;;;;;6184632;23;20012;-80
2021/12/11 11:26:45;;;;;;;107.50;54.22;;;;;;;;;;6184516;23;20019;-80
2021/12/11 11:29:14;;;;;;;102.55;53.72;;;;;;;;;;6184424;23;20043;-80
2021/12/11 11:31:41;;;;;;;99.93;53.45;;;;;;;;;;6184262;23;20091;-80
2021/12/11 11:34:09;;;;;;;98.72;52.75;;;;;;;;;;6160001;23;20388;-80
2021/12/11 11:36:35;;;;;;;96.95;51.92;;;;;;;;;;6184187;23;20028;-80
2021/12/11 11:39:05;;;;;;;93.07;50.83;;;;;;;;;;6184298;23;20521;-80
2021/12/11 11:41:33;;;;;;;89.75;48.65;;;;;;;;;;6184360;23;20016;-80
2021/12/11 11:44:00;;;;;;;82.30;45.80;;;;;;;;;;6184322;23;20017;-80
2021/12/11 11:46:27;;;;;;;85.68;48.65;;;;;;;;;;6184686;23;20322;-80
2021/12/11 11:48:54;;;;;;;78.82;44.95;;;;;;;;;;6184749;23;20099;-80
2021/12/11 11:51:30;;;;;;;71.80;44.00;;;;;;;;;;6184359;23;20035;-80
2021/12/11 11:53:56;;;;;;;71.88;43.38;;;;;;;;;;6159602;23;20449;-80
2021/12/11 11:56:25;;;;;;;73.32;41.80;;;;;;;;;;6159809;23;20088;-81
2021/12/11 11:58:52;;;;;;;73.90;42.03;;;;;;;;;;6184241;23;20500;-80
2021/12/11 12:01:21;;;;;;;59.97;37.63;;;;;;;;;;6184237;23;20439;-80
2021/12/11 12:03:47;;;;;;;65.65;39.70;;;;;;;;;;6184048;23;20020;-81
2021/12/11 12:06:21;;;;;;;66.38;39.33;;;;;;;;;;6184213;23;20035;-81
2021/12/11 12:08:47;;;;;;;66.93;40.97;;;;;;;;;;6184224;23;20023;-81
2021/12/11 12:11:13;;;;;;;65.55;39.05;;;;;;;;;;6159448;23;20048;-81
2021/12/11 12:13:39;;;;;;;70.00;41.80;;;;;;;;;;6184139;23;20013;-81
2021/12/11 12:16:10;;;;;;;68.78;41.55;;;;;;;;;;6184051;23;20012;-81
2021/12/11 12:18:36;;;;;;;68.30;40.50;;;;;;;;;;6158870;23;20294;-82
2021/12/11 12:21:04;;;;;;;65.50;39.95;;;;;;;;;;6183765;23;20348;-82
2021/12/11 12:23:31;;;;;;;62.30;37.97;;;;;;;;;;6183910;23;20453;-81
2021/12/11 12:26:01;;;;;;;61.50;38.65;;;;;;;;;;6184136;23;20042;-81
2021/12/11 12:28:28;;;;;;;68.13;39.88;;;;;;;;;;6158991;23;20012;-82
2021/12/11 12:30:57;;;;;;;64.43;38.72;;;;;;;;;;6159311;23;20013;-82
2021/12/11 12:33:24;;;;;;;65.00;39.38;;;;;;;;;;6183503;23;20016;-82
2021/12/11 12:35:50;;;;;;;58.05;37.42;;;;;;;;;;6158328;23;20023;-82
2021/12/11 12:38:17;;;;;;;62.10;37.15;;;;;;;;;;6158837;23;20016;-81
2021/12/11 12:40:45;;;;;;;60.33;37.50;;;;;;;;;;6158595;23;20072;-83
2021/12/11 12:43:31;;;;;;;60.78;37.72;;;;;;;;;;6183433;23;20264;-82
2021/12/11 12:45:57;;;;;;;63.50;35.08;;;;;;;;;;6183449;23;20496;-82
2021/12/11 12:48:23;;;;;;;63.35;37.15;;;;;;;;;;6183547;23;20047;-82
2021/12/11 12:51:00;;;;;;;60.13;35.72;;;;;;;;;;6183290;23;20023;-82
2021/12/11 12:53:33;;;;;;;61.45;36.80;;;;;;;;;;6183375;23;20057;-82
2021/12/11 12:56:14;;;;;;;65.55;36.15;;;;;;;;;;6183369;23;20017;-83
2021/12/11 12:58:44;;;;;;;59.42;35.58;;;;;;;;;;6183235;23;20137;-82
2021/12/11 13:01:18;;;;;;;55.50;35.88;;;;;;;;;;6158505;23;20241;-82
2021/12/11 13:03:45;;;;;;;61.55;35.78;;;;;;;;;;6158617;23;20024;-82
2021/12/11 13:06:13;;;;;;;50.90;32.88;;;;;;;;;;6183181;23;20453;-82
2021/12/11 13:08:42;;;;;;;52.47;32.53;;;;;;;;;;6183155;23;20017;-82
2021/12/11 13:11:11;;;;;;;50.25;32.38;;;;;;;;;;6183294;23;20044;-83
2021/12/11 13:13:38;;;;;;;52.90;33.42;;;;;;;;;;6183093;23;20012;-83
2021/12/11 13:16:07;;;;;;;51.35;32.70;;;;;;;;;;6158350;23;20074;-83
2021/12/11 13:18:35;;;;;;;51.60;33.28;;;;;;;;;;6183242;23;20027;-84
2021/12/11 13:21:16;;;;;;;49.70;32.90;;;;;;;;;;6182960;23;20393;-84
2021/12/11 13:23:44;;;;;;;51.35;32.72;;;;;;;;;;6183163;23;20071;-84
2021/12/11 13:26:12;;;;;;;51.58;33.47;;;;;;;;;;6183016;23;20040;-83
2021/12/11 13:28:43;;;;;;;56.67;36.40;;;;;;;;;;6183059;23;20051;-83
2021/12/11 13:31:11;;;;;;;51.88;34.10;;;;;;;;;;6183201;23;20441;-84
2021/12/11 13:33:39;;;;;;;52.25;33.75;;;;;;;;;;6183008;23;20114;-84
2021/12/11 13:36:05;;;;;;;52.08;34.30;;;;;;;;;;6182755;23;20028;-84
2021/12/11 13:38:33;;;;;;;56.03;35.10;;;;;;;;;;6183344;23;20017;-83
2021/12/11 13:41:08;;;;;;;55.00;33.88;;;;;;;;;;6183019;23;20504;-85
2021/12/11 13:43:35;;;;;;;56.70;36.08;;;;;;;;;;6183257;23;20017;-84
2021/12/11 13:46:01;;;;;;;56.65;34.90;;;;;;;;;;6180659;23;20449;-85
2021/12/11 13:48:27;;;;;;;62.28;37.30;;;;;;;;;;6183399;23;20017;-85
2021/12/11 13:50:56;;;;;;;59.15;35.03;;;;;;;;;;6184070;23;20016;-85
2021/12/11 13:53:23;;;;;;;57.92;35.03;;;;;;;;;;6159763;23;20012;-84
2021/12/11 13:55:49;;;;;;;53.00;33.90;;;;;;;;;;6186327;23;20012;-84
2021/12/11 13:58:15;;;;;;;52.83;33.85;;;;;;;;;;6184916;23;20096;-84
2021/12/11 14:00:48;;;;;;;54.35;34.00;;;;;;;;;;6183068;23;20477;-83
2021/12/11 14:03:15;;;;;;;51.08;34.05;;;;;;;;;;6184176;23;20009;-84
2021/12/11 14:05:42;;;;;;;53.13;34.45;;;;;;;;;;6186117;23;20437;-83
2021/12/11 14:08:10;;;;;;;54.05;34.70;;;;;;;;;;6183485;23;20013;-84
2021/12/11 14:10:36;;;;;;;65.13;34.85;;;;;;;;;;6182869;23;20353;-84
2021/12/11 14:13:04;;;;;;;56.45;35.72;;;;;;;;;;6181318;23;20024;-84
2021/12/11 14:15:31;;;;;;;50.85;32.75;;;;;;;;;;6181985;23;20345;-84
2021/12/11 14:17:57;;;;;;;49.95;33.08;;;;;;;;;;6181556;23;20091;-83
2021/12/11 14:20:24;;;;;;;52.83;32.45;;;;;;;;;;6181059;23;20020;-84
2021/12/11 14:22:50;;;;;;;52.20;34.50;;;;;;;;;;6180915;23;20044;-83
2021/12/11 14:25:18;;;;;;;53.60;34.67;;;;;;;;;;6156987;23;20017;-84
2021/12/11 14:27:44;;;;;;;54.50;36.38;;;;;;;;;;6182189;23;20055;-83
2021/12/11 14:30:13;;;;;;;58.83;36.45;;;;;;;;;;6182778;23;20021;-83
2021/12/11 14:32:44;;;;;;;58.10;37.08;;;;;;;;;;6182938;23;20051;-83
2021/12/11 14:35:11;;;;;;;60.92;37.45;;;;;;;;;;6175441;23;20021;-84
2021/12/11 14:37:37;;;;;;;63.30;36.50;;;;;;;;;;6177498;23;20025;-83
2021/12/11 14:40:04;;;;;;;57.83;35.15;;;;;;;;;;6152195;23;20021;-84
2021/12/11 14:42:31;;;;;;;59.20;36.30;;;;;;;;;;6177446;23;20217;-85
2021/12/11 14:45:01;;;;;;;55.35;35.35;;;;;;;;;;6179768;23;20017;-83